Denhart, Iowa
Current Conditions -  °F | °C
As of 2:35 AM on Saturday 20 Dec 2014 (Local Time) from KCAV Reporting Station
Haze Haze  
Wind Chill: 22°   Ceiling: 300
Heat Index: 30°   Visibility: 0.75mi
Dew Point: 30°   Wind: 9mph
Humidity: 100%   Direction: 170°S
Pressure: 30.16"   Gusts: NA
Location:  42.9524°N, 93.7361°W
Report Text: KCAV 200835Z AUTO 17008KT 3/4SM BR OVC003 M01/M01 A3016 RMK AO2
Loading
Personal Weather Stations






























Interactive Weather Map New forecast layout! Learn more

10-Day Weather Forecast

Advertisements
Track Severe Weather on mobile